createdAt,value
2022-10-01T00:00:47.763Z,6.49
2022-10-01T00:04:06.659Z,6.46
2022-10-01T00:07:14.292Z,6.44
2022-10-01T00:10:17.494Z,6.43
2022-10-01T00:13:20.615Z,6.44
2022-10-01T00:16:24.918Z,6.44
2022-10-01T00:19:30.793Z,6.45
2022-10-01T00:22:37.548Z,6.45
2022-10-01T00:25:40.796Z,6.47
2022-10-01T00:28:47.930Z,6.49
2022-10-01T00:31:50.763Z,6.51
2022-10-01T00:34:53.528Z,6.52
2022-10-01T00:37:56.516Z,6.54
2022-10-01T00:41:01.401Z,6.57
2022-10-01T00:44:24.510Z,6.59
2022-10-01T00:47:31.309Z,6.62
2022-10-01T00:50:34.909Z,6.66
2022-10-01T00:53:38.181Z,6.67
2022-10-01T00:56:42.021Z,6.68
2022-10-01T00:59:47.190Z,6.68
2022-10-01T01:02:50.639Z,6.67
2022-10-01T01:05:54.393Z,6.65
2022-10-01T01:08:57.324Z,6.60
2022-10-01T01:12:07.311Z,6.57
2022-10-01T01:15:15.459Z,6.54
2022-10-01T01:18:21.464Z,6.49
2022-10-01T01:21:27.633Z,6.44
2022-10-01T01:24:39.903Z,6.40
2022-10-01T01:27:47.555Z,6.34
2022-10-01T01:30:52.923Z,6.28
2022-10-01T01:33:56.804Z,6.24
2022-10-01T01:37:01.464Z,6.21
2022-10-01T01:40:09.518Z,6.19
2022-10-01T01:43:16.799Z,6.18
2022-10-01T01:46:20.603Z,6.16
2022-10-01T01:49:31.548Z,6.15
2022-10-01T01:52:34.815Z,6.14
2022-10-01T01:55:38.415Z,6.14
2022-10-01T01:58:41.130Z,6.13
2022-10-01T02:01:44.239Z,6.14
2022-10-01T02:04:54.023Z,6.14
2022-10-01T02:08:13.871Z,6.14
2022-10-01T02:11:25.912Z,6.12
2022-10-01T02:14:35.421Z,6.12
2022-10-01T02:17:46.082Z,6.10
2022-10-01T02:20:52.117Z,6.09
2022-10-01T02:23:58.019Z,6.05
2022-10-01T02:27:03.495Z,6.03
2022-10-01T02:30:08.063Z,6.02
2022-10-01T02:33:13.687Z,6.01
2022-10-01T02:36:17.224Z,5.99
2022-10-01T02:39:22.388Z,5.97
2022-10-01T02:42:28.769Z,5.97
2022-10-01T02:45:34.465Z,5.96
2022-10-01T02:48:37.122Z,5.97
2022-10-01T02:51:43.871Z,5.96
2022-10-01T02:54:50.157Z,5.95
2022-10-01T02:57:53.866Z,5.95
2022-10-01T03:00:59.328Z,5.91
2022-10-01T03:04:02.205Z,5.87
2022-10-01T03:07:05.114Z,5.85
2022-10-01T03:10:08.983Z,5.85
2022-10-01T03:13:11.931Z,5.84
2022-10-01T03:16:14.674Z,5.82
2022-10-01T03:19:18.870Z,5.79
2022-10-01T03:22:22.137Z,5.77
2022-10-01T03:25:25.023Z,5.75
2022-10-01T03:28:28.673Z,5.73
2022-10-01T03:31:32.951Z,5.70
2022-10-01T03:34:35.933Z,5.67
2022-10-01T03:37:40.086Z,5.62
2022-10-01T03:40:43.329Z,5.60
2022-10-01T03:43:46.369Z,5.58
2022-10-01T03:46:51.606Z,5.56
2022-10-01T03:49:57.409Z,5.56
2022-10-01T03:53:00.130Z,5.53
2022-10-01T03:56:04.211Z,5.52
2022-10-01T03:59:07.896Z,5.49
2022-10-01T04:02:10.819Z,5.47
2022-10-01T04:05:13.967Z,5.44
2022-10-01T04:08:20.806Z,5.43
2022-10-01T04:11:26.489Z,5.41
2022-10-01T04:14:29.276Z,5.39
2022-10-01T04:17:31.942Z,5.37
2022-10-01T04:20:35.528Z,5.35
2022-10-01T04:23:38.060Z,5.34
2022-10-01T04:26:41.128Z,5.32
2022-10-01T04:29:43.727Z,5.32
2022-10-01T04:32:46.863Z,5.30
2022-10-01T04:35:49.438Z,5.28
2022-10-01T04:38:52.420Z,5.27
2022-10-01T04:41:57.580Z,5.25
2022-10-01T04:45:00.275Z,5.24
2022-10-01T04:48:03.352Z,5.24
2022-10-01T04:51:06.111Z,5.25
2022-10-01T04:54:08.710Z,5.24
2022-10-01T04:57:14.095Z,5.25
2022-10-01T05:00:18.321Z,5.26
2022-10-01T05:03:20.925Z,5.28
2022-10-01T05:06:23.825Z,5.29
2022-10-01T05:09:26.404Z,5.31
2022-10-01T05:12:29.365Z,5.32
2022-10-01T05:15:32.308Z,5.35
2022-10-01T05:18:34.887Z,5.39
2022-10-01T05:21:43.278Z,5.44
2022-10-01T05:24:46.893Z,5.49
2022-10-01T05:27:49.444Z,5.58
2022-10-01T05:30:52.030Z,5.68
2022-10-01T05:33:54.549Z,5.78
2022-10-01T05:37:00.350Z,5.86
2022-10-01T05:40:03.543Z,5.93
2022-10-01T05:43:06.068Z,6.03
2022-10-01T05:46:09.557Z,6.14
2022-10-01T05:49:12.204Z,6.23
2022-10-01T05:52:15.849Z,6.32
2022-10-01T05:55:18.659Z,6.41
2022-10-01T05:58:21.315Z,6.51
2022-10-01T06:01:23.954Z,6.59
2022-10-01T06:04:26.822Z,6.70
2022-10-01T06:07:31.542Z,6.79
2022-10-01T06:10:36.206Z,6.88
2022-10-01T06:13:39.603Z,6.98
2022-10-01T06:16:42.206Z,7.07
2022-10-01T06:19:44.810Z,7.18
2022-10-01T06:22:53.798Z,7.30
2022-10-01T06:25:58.644Z,7.43
2022-10-01T06:29:02.171Z,7.56
2022-10-01T06:32:04.823Z,7.69
2022-10-01T06:35:08.004Z,7.82
2022-10-01T06:38:10.806Z,7.92
2022-10-01T06:41:13.608Z,8.04
2022-10-01T06:44:16.153Z,8.14
2022-10-01T06:47:19.309Z,8.26
2022-10-01T06:50:22.056Z,8.39
2022-10-01T06:53:26.474Z,8.52
2022-10-01T06:56:29.075Z,8.66
2022-10-01T06:59:31.883Z,8.79
2022-10-01T07:02:34.449Z,8.94
2022-10-01T07:05:37.200Z,9.12
2022-10-01T07:08:39.895Z,9.31
2022-10-01T07:11:42.479Z,9.50
2022-10-01T07:14:45.117Z,9.67
2022-10-01T07:17:51.282Z,9.83
2022-10-01T07:20:56.084Z,10.02
2022-10-01T07:23:58.707Z,10.21
2022-10-01T07:27:06.517Z,10.36
2022-10-01T07:30:10.950Z,10.51
2022-10-01T07:33:17.351Z,10.66
2022-10-01T07:36:20.486Z,10.83
2022-10-01T07:39:24.519Z,11.01
2022-10-01T07:42:27.045Z,11.20
2022-10-01T07:45:29.674Z,11.40
2022-10-01T07:48:32.142Z,11.52
2022-10-01T07:51:36.153Z,11.64
2022-10-01T07:54:38.943Z,11.77
2022-10-01T07:57:41.456Z,11.93
2022-10-01T08:00:44.462Z,12.10
2022-10-01T08:03:48.610Z,12.31
2022-10-01T08:06:51.819Z,12.54
2022-10-01T08:09:54.364Z,12.78
2022-10-01T08:12:59.970Z,13.04
2022-10-01T08:16:03.543Z,13.34
2022-10-01T08:19:07.372Z,13.56
2022-10-01T08:22:09.952Z,13.81
2022-10-01T08:25:12.499Z,13.96
2022-10-01T08:28:15.769Z,14.08
2022-10-01T08:31:18.215Z,14.21
2022-10-01T08:34:23.359Z,14.32
2022-10-01T08:37:26.828Z,14.42
2022-10-01T08:40:30.091Z,14.46
2022-10-01T08:43:35.789Z,14.48
2022-10-01T08:46:38.592Z,14.50
2022-10-01T08:49:42.861Z,14.55
2022-10-01T08:52:50.430Z,14.54
2022-10-01T08:55:54.637Z,14.50
2022-10-01T08:58:58.169Z,14.41
2022-10-01T09:02:00.793Z,14.35
2022-10-01T09:05:05.335Z,14.37
2022-10-01T09:08:14.797Z,14.45
2022-10-01T09:11:29.089Z,14.50
2022-10-01T09:14:36.565Z,14.57
2022-10-01T09:17:52.552Z,14.69
2022-10-01T09:20:57.127Z,14.85
2022-10-01T09:24:03.633Z,15.06
2022-10-01T09:27:09.998Z,15.31
2022-10-01T09:30:15.416Z,15.52
2022-10-01T09:33:19.610Z,15.71
2022-10-01T09:36:25.660Z,15.84
2022-10-01T09:39:30.119Z,15.93
2022-10-01T09:42:32.647Z,15.96
2022-10-01T09:45:36.761Z,15.96
2022-10-01T09:48:42.601Z,15.95
2022-10-01T09:51:48.144Z,16.00
2022-10-01T09:54:52.128Z,16.13
2022-10-01T09:57:58.817Z,16.29
2022-10-01T10:01:03.201Z,16.48
2022-10-01T10:04:05.649Z,16.66
2022-10-01T10:07:11.879Z,16.78
2022-10-01T10:10:23.273Z,16.90
2022-10-01T10:13:34.580Z,16.95
2022-10-01T10:16:43.014Z,16.96
2022-10-01T10:19:48.817Z,17.05
2022-10-01T10:22:51.575Z,17.17
2022-10-01T10:25:54.925Z,17.27
2022-10-01T10:28:58.396Z,17.35
2022-10-01T10:32:04.022Z,17.44
2022-10-01T10:35:10.521Z,17.50
2022-10-01T10:38:17.748Z,17.48
2022-10-01T10:41:25.731Z,17.48
2022-10-01T10:44:34.470Z,17.49
2022-10-01T10:47:43.991Z,17.45
2022-10-01T10:50:46.960Z,17.42
2022-10-01T10:53:50.393Z,17.47
2022-10-01T10:57:00.024Z,17.49
2022-10-01T11:00:07.340Z,17.54
2022-10-01T11:03:14.280Z,17.69
2022-10-01T11:06:18.070Z,17.89
2022-10-01T11:09:21.418Z,18.03
2022-10-01T11:12:29.425Z,18.12
2022-10-01T11:15:42.706Z,18.20
2022-10-01T11:18:57.979Z,18.29
2022-10-01T11:22:09.360Z,18.30
2022-10-01T11:25:30.316Z,18.32
2022-10-01T11:28:39.529Z,18.37
2022-10-01T11:31:47.094Z,18.47
2022-10-01T11:34:56.671Z,18.49
2022-10-01T11:38:17.698Z,18.39
2022-10-01T11:41:24.600Z,18.34
2022-10-01T11:44:29.984Z,18.28
2022-10-01T11:47:36.887Z,18.20
2022-10-01T11:50:42.253Z,18.15
2022-10-01T11:53:47.608Z,18.16
2022-10-01T11:57:11.112Z,18.20
2022-10-01T12:00:14.070Z,18.21
2022-10-01T12:03:20.695Z,18.25
2022-10-01T12:06:31.697Z,18.28
2022-10-01T12:09:38.940Z,18.31
2022-10-01T12:12:46.895Z,18.38
2022-10-01T12:15:53.004Z,18.55
2022-10-01T12:18:57.841Z,18.67
2022-10-01T12:22:03.420Z,18.83
2022-10-01T12:25:11.336Z,18.97
2022-10-01T12:28:18.200Z,19.08
2022-10-01T12:31:25.743Z,19.12
2022-10-01T12:34:32.936Z,19.04
2022-10-01T12:37:43.979Z,18.94
2022-10-01T12:40:50.273Z,18.72
2022-10-01T12:44:03.367Z,18.51
2022-10-01T12:47:18.288Z,18.25
2022-10-01T12:50:32.932Z,18.00
2022-10-01T12:53:39.635Z,17.79
2022-10-01T12:56:45.103Z,17.66
2022-10-01T12:59:53.388Z,17.60
2022-10-01T13:03:18.762Z,17.52
2022-10-01T13:06:27.265Z,17.46
2022-10-01T13:09:34.007Z,17.49
2022-10-01T13:12:45.089Z,17.55
2022-10-01T13:15:48.907Z,17.61
2022-10-01T13:18:57.052Z,17.67
2022-10-01T13:22:07.098Z,17.65
2022-10-01T13:25:19.229Z,17.59
2022-10-01T13:28:26.140Z,17.48
2022-10-01T13:31:34.369Z,17.39
2022-10-01T13:34:39.321Z,17.27
2022-10-01T13:37:43.159Z,17.11
2022-10-01T13:40:56.802Z,16.95
2022-10-01T13:44:04.156Z,16.82
2022-10-01T13:47:09.308Z,16.71
2022-10-01T13:50:20.091Z,16.60
2022-10-01T13:53:24.222Z,16.47
2022-10-01T13:56:29.188Z,16.30
2022-10-01T13:59:33.063Z,16.10
2022-10-01T14:02:37.071Z,15.91
2022-10-01T14:05:40.787Z,15.74
2022-10-01T14:08:46.110Z,15.46
2022-10-01T14:12:09.148Z,15.16
2022-10-01T14:15:33.873Z,14.89
2022-10-01T14:18:39.120Z,14.67
2022-10-01T14:21:48.771Z,14.47
2022-10-01T14:25:02.886Z,14.35
2022-10-01T14:28:18.988Z,14.20
2022-10-01T14:31:28.094Z,14.10
2022-10-01T14:34:39.298Z,14.05
2022-10-01T14:37:41.919Z,14.01
2022-10-01T14:40:47.102Z,13.94
2022-10-01T14:43:49.912Z,13.84
2022-10-01T14:46:53.600Z,13.71
2022-10-01T14:49:56.424Z,13.60
2022-10-01T14:53:07.691Z,13.46
2022-10-01T14:56:14.074Z,13.34
2022-10-01T14:59:19.955Z,13.24
2022-10-01T15:02:23.543Z,13.11
2022-10-01T15:05:27.562Z,12.99
2022-10-01T15:08:36.853Z,12.91
2022-10-01T15:11:44.282Z,12.85
2022-10-01T15:14:47.699Z,12.78
2022-10-01T15:17:50.383Z,12.70
2022-10-01T15:20:58.823Z,12.59
2022-10-01T15:24:03.724Z,12.47
2022-10-01T15:27:07.427Z,12.37
2022-10-01T15:30:13.653Z,12.27
2022-10-01T15:33:20.864Z,12.18
2022-10-01T15:36:23.615Z,12.10
2022-10-01T15:39:29.272Z,12.02
2022-10-01T15:42:32.841Z,11.94
2022-10-01T15:45:35.611Z,11.83
2022-10-01T15:48:38.368Z,11.73
2022-10-01T15:52:06.856Z,11.64
2022-10-01T15:55:14.521Z,11.54
2022-10-01T15:58:19.784Z,11.48
2022-10-01T16:01:23.958Z,11.41
2022-10-01T16:04:27.040Z,11.33
2022-10-01T16:07:30.455Z,11.27
2022-10-01T16:10:34.307Z,11.21
2022-10-01T16:13:40.612Z,11.15
2022-10-01T16:16:43.206Z,11.10
2022-10-01T16:19:46.621Z,11.05
2022-10-01T16:22:49.300Z,11.01
2022-10-01T16:25:52.389Z,10.99
2022-10-01T16:28:55.799Z,10.97
2022-10-01T16:31:58.842Z,10.94
2022-10-01T16:35:22.532Z,10.92
2022-10-01T16:38:25.699Z,10.91
2022-10-01T16:41:28.672Z,10.91
2022-10-01T16:44:31.862Z,10.91
2022-10-01T16:47:36.534Z,10.92
2022-10-01T16:50:42.786Z,10.93
2022-10-01T16:53:46.402Z,10.93
2022-10-01T16:56:50.268Z,10.92
2022-10-01T16:59:53.062Z,10.92
2022-10-01T17:02:58.159Z,10.91
2022-10-01T17:06:00.849Z,10.92
2022-10-01T17:09:03.439Z,10.92
2022-10-01T17:12:06.124Z,10.93
2022-10-01T17:15:11.867Z,10.92
2022-10-01T17:18:14.492Z,10.92
2022-10-01T17:21:17.128Z,10.90
2022-10-01T17:24:22.401Z,10.87
2022-10-01T17:27:27.046Z,10.85
2022-10-01T17:30:29.653Z,10.82
2022-10-01T17:33:32.462Z,10.80
2022-10-01T17:36:35.272Z,10.74
2022-10-01T17:39:38.766Z,10.69
2022-10-01T17:42:41.572Z,10.66
2022-10-01T17:45:46.778Z,10.64
2022-10-01T17:48:50.242Z,10.61
2022-10-01T17:51:53.155Z,10.57
2022-10-01T17:54:55.681Z,10.55
2022-10-01T17:57:58.336Z,10.52
2022-10-01T18:01:01.175Z,10.50
2022-10-01T18:04:05.117Z,10.48
2022-10-01T18:07:08.102Z,10.47
2022-10-01T18:10:11.850Z,10.44
2022-10-01T18:13:15.125Z,10.42
2022-10-01T18:16:19.364Z,10.41
2022-10-01T18:22:46.672Z,10.40
2022-10-01T18:25:49.417Z,10.39
2022-10-01T18:28:52.204Z,10.38
2022-10-01T18:31:57.565Z,10.38
2022-10-01T18:35:00.742Z,10.39
2022-10-01T18:38:10.451Z,10.40
2022-10-01T18:41:17.358Z,10.40
2022-10-01T18:44:20.676Z,10.39
2022-10-01T18:47:27.553Z,10.38
2022-10-01T18:50:40.950Z,10.37
2022-10-01T18:53:52.946Z,10.36
2022-10-01T18:57:05.291Z,10.37
2022-10-01T19:00:09.766Z,10.39
2022-10-01T19:03:21.126Z,10.42
2022-10-01T19:06:28.085Z,10.47
2022-10-01T19:09:38.209Z,10.47
2022-10-01T19:12:47.946Z,10.49
2022-10-01T19:15:57.838Z,10.49
2022-10-01T19:19:10.635Z,10.50
2022-10-01T19:22:17.173Z,10.51
2022-10-01T19:25:22.127Z,10.50
2022-10-01T19:28:32.625Z,10.52
2022-10-01T19:31:41.455Z,10.52
2022-10-01T19:34:48.787Z,10.52
2022-10-01T19:37:52.297Z,10.52
2022-10-01T19:40:56.768Z,10.53
2022-10-01T19:44:00.411Z,10.53
2022-10-01T19:47:07.102Z,10.53
2022-10-01T19:50:18.940Z,10.53
2022-10-01T19:53:26.042Z,10.53
2022-10-01T19:56:29.132Z,10.54
2022-10-01T19:59:31.647Z,10.55
2022-10-01T20:02:38.857Z,10.57
2022-10-01T20:05:44.420Z,10.58
2022-10-01T20:08:52.780Z,10.57
2022-10-01T20:12:01.104Z,10.56
2022-10-01T20:15:09.051Z,10.55
2022-10-01T20:18:16.887Z,10.53
2022-10-01T20:21:30.243Z,10.53
2022-10-01T20:24:46.149Z,10.52
2022-10-01T20:27:54.285Z,10.51
2022-10-01T20:31:00.258Z,10.51
2022-10-01T20:34:06.949Z,10.51
2022-10-01T20:37:18.065Z,10.49
2022-10-01T20:40:24.654Z,10.49
2022-10-01T20:43:30.850Z,10.48
2022-10-01T20:46:35.838Z,10.49
2022-10-01T20:49:43.816Z,10.49
2022-10-01T20:52:52.209Z,10.50
2022-10-01T20:55:56.702Z,10.51
2022-10-01T20:59:02.081Z,10.51
2022-10-01T21:02:23.049Z,10.52
2022-10-01T21:05:26.500Z,10.52
2022-10-01T21:08:38.170Z,10.53
2022-10-01T21:11:44.824Z,10.54
2022-10-01T21:14:50.681Z,10.56
2022-10-01T21:17:57.767Z,10.56
2022-10-01T21:21:09.642Z,10.57
2022-10-01T21:24:22.809Z,10.57
2022-10-01T21:27:32.947Z,10.56
2022-10-01T21:30:41.808Z,10.57
2022-10-01T21:33:48.032Z,10.57
2022-10-01T21:36:58.434Z,10.58
2022-10-01T21:40:06.194Z,10.59
2022-10-01T21:43:11.881Z,10.59
2022-10-01T21:46:19.390Z,10.58
2022-10-01T21:49:28.834Z,10.60
2022-10-01T21:52:39.004Z,10.60
2022-10-01T21:55:49.031Z,10.60
2022-10-01T21:58:56.788Z,10.61
2022-10-01T22:02:04.453Z,10.61
2022-10-01T22:05:11.247Z,10.61
2022-10-01T22:08:22.616Z,10.60
2022-10-01T22:11:27.755Z,10.59
2022-10-01T22:14:30.800Z,10.60
2022-10-01T22:17:33.739Z,10.62
2022-10-01T22:20:39.180Z,10.65
2022-10-01T22:23:44.644Z,10.68
2022-10-01T22:26:49.171Z,10.69
2022-10-01T22:29:56.445Z,10.70
2022-10-01T22:33:05.239Z,10.70
2022-10-01T22:36:11.531Z,10.69
2022-10-01T22:39:19.188Z,10.66
2022-10-01T22:42:25.035Z,10.62
2022-10-01T22:45:32.040Z,10.54
2022-10-01T22:48:47.059Z,10.47
2022-10-01T22:51:57.015Z,10.43
2022-10-01T22:55:07.172Z,10.40
2022-10-01T23:01:40.904Z,10.36
2022-10-01T23:04:51.061Z,10.34
2022-10-01T23:07:58.859Z,10.33
2022-10-01T23:11:06.260Z,10.32
2022-10-01T23:14:13.084Z,10.31
2022-10-01T23:17:18.303Z,10.32
2022-10-01T23:20:27.422Z,10.33
2022-10-01T23:23:31.334Z,10.32
2022-10-01T23:26:40.430Z,10.31
2022-10-01T23:29:53.552Z,10.29
2022-10-01T23:33:16.565Z,10.29
2022-10-01T23:36:28.099Z,10.30
2022-10-01T23:39:43.099Z,10.31
2022-10-01T23:42:52.402Z,10.32
2022-10-01T23:45:59.744Z,10.35
2022-10-01T23:49:05.200Z,10.37
2022-10-01T23:52:13.812Z,10.39
2022-10-01T23:55:53.617Z,10.39
2022-10-01T23:59:01.708Z,10.41
